< < Back
Terminal Aerodrome Forecast


Current Version              Previous Versions:   1  2  3  4  5  6  7  8  9  

Terminal Aerodrome Forecast

520
FTUS42 KFFC 292325
TAFMCN
TAF
KMCN 292325Z 3000/3024 VRB15G35KT 5SM TSRA BKN030CB
     FM300015 07010KT P6SM VCSH FEW045 SCT250
     FM300300 07004KT P6SM FEW250
     FM301500 08005KT P6SM FEW030
     FM301800 07010G16KT P6SM VCSH SCT045 SCT250=

Latest METAR

806
SAUS80 KWBC 301500 RRB
MTRMCN
METAR KMCN 301453Z 06011KT 10SM FEW021 29/21 A3008 RMK AO2 SLP181
T02890211 55000


USA.gov is the U.S. government's official web portal to all federal, state and local government web resources and services.